createdAt,value
2023-03-24T00:02:25.029Z,82.10
2023-03-24T00:04:54.369Z,81.90
2023-03-24T00:07:25.292Z,81.10
2023-03-24T00:09:55.227Z,80.70
2023-03-24T00:12:24.143Z,80.70
2023-03-24T00:14:54.761Z,80.50
2023-03-24T00:17:25.648Z,80.30
2023-03-24T00:19:56.246Z,80.10
2023-03-24T00:22:24.320Z,79.70
2023-03-24T00:24:52.398Z,79.70
2023-03-24T00:27:21.477Z,80.00
2023-03-24T00:29:50.617Z,79.60
2023-03-24T00:32:18.702Z,79.20
2023-03-24T00:34:46.933Z,79.80
2023-03-24T00:37:15.129Z,79.40
2023-03-24T00:39:44.596Z,79.30
2023-03-24T00:42:30.900Z,79.10
2023-03-24T00:44:59.907Z,78.90
2023-03-24T00:47:27.998Z,78.90
2023-03-24T00:49:58.958Z,78.60
2023-03-24T00:52:47.769Z,78.30
2023-03-24T00:56:03.132Z,78.00
2023-03-24T00:58:34.769Z,77.80
2023-03-24T01:01:16.281Z,77.70
2023-03-24T01:03:53.544Z,77.60
2023-03-24T01:06:42.681Z,77.40
2023-03-24T01:09:14.142Z,77.30
2023-03-24T01:11:42.762Z,77.00
2023-03-24T01:14:26.178Z,76.80
2023-03-24T01:17:56.227Z,76.70
2023-03-24T01:20:37.920Z,76.30
2023-03-24T01:23:22.650Z,76.00
2023-03-24T01:25:52.530Z,75.90
2023-03-24T01:28:57.827Z,75.50
2023-03-24T01:31:38.726Z,75.10
2023-03-24T01:34:09.727Z,74.90
2023-03-24T01:36:38.304Z,74.90
2023-03-24T01:39:06.964Z,74.80
2023-03-24T01:42:08.040Z,74.40
2023-03-24T01:48:39.139Z,73.80
2023-03-24T01:51:25.651Z,73.60
2023-03-24T01:54:04.953Z,73.40
2023-03-24T01:56:41.029Z,73.30
2023-03-24T01:59:20.353Z,72.90
2023-03-24T02:01:49.050Z,73.40
2023-03-24T02:04:17.314Z,72.50
2023-03-24T02:06:46.699Z,71.90
2023-03-24T02:09:15.802Z,72.30
2023-03-24T02:15:11.497Z,71.60
2023-03-24T02:17:57.554Z,71.70
2023-03-24T02:21:05.847Z,71.40
2023-03-24T02:24:24.559Z,71.40
2023-03-24T02:27:04.586Z,71.00
2023-03-24T02:29:44.349Z,70.70
2023-03-24T02:33:16.909Z,70.50
2023-03-24T02:35:56.954Z,70.60
2023-03-24T02:38:43.328Z,70.60
2023-03-24T02:41:35.078Z,70.50
2023-03-24T02:44:39.650Z,70.30
2023-03-24T02:51:27.881Z,70.10
2023-03-24T02:55:03.302Z,69.70
2023-03-24T02:58:07.918Z,69.50
2023-03-24T03:01:38.474Z,69.60
2023-03-24T03:04:12.244Z,68.90
2023-03-24T03:06:44.975Z,68.10
2023-03-24T03:09:25.352Z,68.20
2023-03-24T03:12:23.188Z,69.00
2023-03-24T03:15:32.524Z,67.60
2023-03-24T03:18:33.522Z,68.50
2023-03-24T03:21:08.098Z,68.10
2023-03-24T03:23:40.312Z,68.10
2023-03-24T03:26:26.330Z,67.90
2023-03-24T03:29:00.615Z,67.60
2023-03-24T03:31:39.353Z,67.50
2023-03-24T03:34:33.683Z,67.80
2023-03-24T03:37:11.860Z,67.30
2023-03-24T03:40:12.020Z,67.60
2023-03-24T03:42:49.519Z,67.40
2023-03-24T03:45:21.407Z,67.00
2023-03-24T03:48:09.778Z,66.00
2023-03-24T03:50:39.683Z,66.30
2023-03-24T03:53:08.103Z,66.00
2023-03-24T03:55:38.463Z,65.00
2023-03-24T03:58:07.093Z,66.20
2023-03-24T04:00:37.481Z,65.10
2023-03-24T04:03:29.213Z,65.60
2023-03-24T04:06:30.388Z,64.50
2023-03-24T04:09:25.673Z,64.30
2023-03-24T04:12:03.359Z,64.70
2023-03-24T04:14:51.047Z,64.80
2023-03-24T04:17:26.725Z,64.40
2023-03-24T04:23:01.153Z,64.70
2023-03-24T04:25:29.529Z,63.00
2023-03-24T04:28:22.265Z,64.40
2023-03-24T04:31:10.049Z,62.40
2023-03-24T04:36:54.675Z,62.70
2023-03-24T04:39:28.799Z,62.80
2023-03-24T04:42:11.056Z,62.30
2023-03-24T04:44:43.216Z,63.10
2023-03-24T04:47:23.359Z,63.20
2023-03-24T04:49:51.622Z,61.40
2023-03-24T04:52:20.015Z,62.60
2023-03-24T04:54:51.836Z,61.90
2023-03-24T05:00:18.032Z,62.10
2023-03-24T05:03:20.656Z,61.60
2023-03-24T05:05:57.608Z,61.20
2023-03-24T05:08:29.277Z,61.30
2023-03-24T05:11:23.423Z,61.00
2023-03-24T05:13:55.550Z,60.30
2023-03-24T05:16:24.013Z,60.40
2023-03-24T05:18:58.346Z,60.00
2023-03-24T05:21:27.399Z,59.50
2023-03-24T05:23:55.753Z,60.00
2023-03-24T05:26:24.131Z,60.20
2023-03-24T05:28:52.797Z,59.80
2023-03-24T05:31:24.697Z,59.20
2023-03-24T05:33:53.140Z,59.90
2023-03-24T05:36:21.202Z,59.50
2023-03-24T05:38:49.663Z,59.10
2023-03-24T05:41:18.766Z,59.50
2023-03-24T05:43:51.361Z,58.80
2023-03-24T05:46:21.022Z,58.00
2023-03-24T05:48:52.402Z,58.50
2023-03-24T05:51:25.667Z,56.60
2023-03-24T05:53:58.357Z,55.70
2023-03-24T05:56:28.471Z,54.80
2023-03-24T05:58:56.633Z,57.40
2023-03-24T06:01:25.699Z,57.20
2023-03-24T06:03:54.174Z,57.40
2023-03-24T06:06:22.728Z,58.10
2023-03-24T06:09:04.965Z,55.30
2023-03-24T06:11:33.421Z,55.60
2023-03-24T06:14:01.584Z,55.00
2023-03-24T06:19:25.015Z,56.60
2023-03-24T06:21:56.195Z,55.10
2023-03-24T06:24:24.368Z,57.00
2023-03-24T06:26:52.436Z,57.40
2023-03-24T06:29:36.577Z,57.40
2023-03-24T06:35:11.919Z,56.00
2023-03-24T06:37:40.516Z,55.00
2023-03-24T06:40:15.407Z,54.10
2023-03-24T06:42:43.714Z,53.50
2023-03-24T06:45:13.632Z,56.10
2023-03-24T06:47:42.603Z,55.90
2023-03-24T06:50:11.308Z,54.80
2023-03-24T06:52:42.800Z,55.60
2023-03-24T06:55:25.485Z,56.00
2023-03-24T06:57:57.976Z,54.60
2023-03-24T07:00:30.593Z,53.40
2023-03-24T07:02:59.687Z,54.20
2023-03-24T07:05:27.947Z,51.50
2023-03-24T07:10:28.366Z,53.20
2023-03-24T07:13:03.556Z,53.60
2023-03-24T07:15:32.270Z,54.10
2023-03-24T07:18:01.079Z,54.10
2023-03-24T07:20:32.349Z,53.50
2023-03-24T07:23:01.238Z,51.10
2023-03-24T07:25:29.635Z,52.90
2023-03-24T07:28:03.370Z,52.50
2023-03-24T07:30:39.881Z,51.90
2023-03-24T07:33:32.695Z,49.10
2023-03-24T07:36:43.313Z,50.80
2023-03-24T07:39:17.280Z,51.40
2023-03-24T07:41:46.803Z,50.70
2023-03-24T07:44:17.801Z,49.70
2023-03-24T07:46:46.600Z,50.90
2023-03-24T07:49:19.515Z,50.10
2023-03-24T07:51:48.265Z,50.70
2023-03-24T07:54:20.282Z,49.40
2023-03-24T07:56:51.482Z,49.90
2023-03-24T07:59:20.427Z,49.20
2023-03-24T08:01:54.818Z,47.90
2023-03-24T08:04:27.693Z,48.50
2023-03-24T08:06:56.897Z,45.90
2023-03-24T08:09:28.289Z,49.30
2023-03-24T08:11:57.865Z,48.20
2023-03-24T08:14:27.101Z,49.30
2023-03-24T08:19:58.276Z,49.50
2023-03-24T08:22:38.646Z,49.20
2023-03-24T08:25:11.082Z,48.90
2023-03-24T08:27:58.688Z,48.50
2023-03-24T08:30:32.478Z,47.80
2023-03-24T08:39:14.855Z,48.50
2023-03-24T08:41:54.497Z,49.20
2023-03-24T08:44:25.245Z,49.10
2023-03-24T08:46:57.181Z,48.00
2023-03-24T08:49:26.310Z,47.30
2023-03-24T08:52:03.387Z,48.40
2023-03-24T08:54:35.514Z,49.20
2023-03-24T08:57:59.018Z,49.10
2023-03-24T09:00:36.989Z,49.10
2023-03-24T09:03:07.773Z,49.00
2023-03-24T09:05:44.569Z,48.90
2023-03-24T09:08:16.327Z,47.80
2023-03-24T09:10:56.254Z,48.70
2023-03-24T09:13:25.292Z,48.90
2023-03-24T09:15:58.609Z,46.90
2023-03-24T09:18:29.219Z,48.30
2023-03-24T09:20:57.551Z,48.30
2023-03-24T09:23:26.130Z,48.80
2023-03-24T09:25:54.898Z,48.60
2023-03-24T09:28:23.799Z,48.90
2023-03-24T09:31:18.194Z,48.40
2023-03-24T09:33:52.908Z,48.70
2023-03-24T09:36:27.208Z,48.10
2023-03-24T09:38:55.224Z,48.10
2023-03-24T09:44:06.226Z,48.30
2023-03-24T09:46:58.270Z,49.10
2023-03-24T09:49:33.731Z,49.10
2023-03-24T09:52:07.667Z,49.00
2023-03-24T09:54:51.029Z,48.40
2023-03-24T09:57:47.569Z,48.70
2023-03-24T10:00:24.539Z,48.90
2023-03-24T10:02:56.098Z,48.70
2023-03-24T10:06:09.340Z,48.50
2023-03-24T10:08:42.331Z,47.90
2023-03-24T10:11:38.750Z,46.80
2023-03-24T10:14:22.907Z,48.50
2023-03-24T10:17:15.393Z,48.00
2023-03-24T10:20:07.983Z,48.80
2023-03-24T10:22:53.650Z,48.50
2023-03-24T10:28:40.841Z,48.50
2023-03-24T10:31:15.779Z,48.60
2023-03-24T10:33:46.045Z,48.80
2023-03-24T10:36:18.860Z,48.80
2023-03-24T10:38:47.787Z,48.50
2023-03-24T10:41:29.071Z,49.00
2023-03-24T10:43:59.591Z,48.80
2023-03-24T10:46:36.764Z,48.60
2023-03-24T10:49:10.458Z,49.20
2023-03-24T10:51:40.229Z,48.80
2023-03-24T10:54:23.957Z,49.20
2023-03-24T10:57:19.410Z,49.10
2023-03-24T10:59:55.718Z,49.00
2023-03-24T11:02:31.870Z,48.60
2023-03-24T11:05:23.992Z,48.40
2023-03-24T11:07:54.044Z,49.20
2023-03-24T11:10:29.278Z,49.50
2023-03-24T11:12:58.884Z,49.50
2023-03-24T11:15:29.643Z,49.60
2023-03-24T11:18:05.076Z,49.30
2023-03-24T11:20:36.867Z,49.70
2023-03-24T11:23:17.048Z,49.40
2023-03-24T11:25:51.831Z,49.90
2023-03-24T11:28:27.092Z,49.80
2023-03-24T11:30:55.964Z,49.80
2023-03-24T11:33:36.383Z,49.60
2023-03-24T11:36:36.822Z,50.20
2023-03-24T11:39:22.541Z,50.10
2023-03-24T11:42:05.966Z,50.20
2023-03-24T11:44:48.720Z,50.50
2023-03-24T11:47:25.849Z,50.50
2023-03-24T11:50:14.007Z,50.40
2023-03-24T11:52:57.293Z,50.70
2023-03-24T11:56:19.193Z,50.90
2023-03-24T11:59:05.064Z,50.70
2023-03-24T12:01:47.764Z,50.60
2023-03-24T12:04:28.845Z,50.90
2023-03-24T12:07:20.871Z,50.80
2023-03-24T12:09:59.111Z,51.00
2023-03-24T12:13:01.453Z,50.90
2023-03-24T12:15:42.549Z,51.10
2023-03-24T12:18:35.796Z,51.10
2023-03-24T12:21:19.115Z,51.30
2023-03-24T12:24:00.147Z,51.30
2023-03-24T12:26:31.928Z,51.40
2023-03-24T12:29:35.912Z,51.60
2023-03-24T12:32:42.736Z,51.60
2023-03-24T12:35:18.193Z,51.60
2023-03-24T12:38:08.731Z,51.90
2023-03-24T12:40:55.300Z,52.00
2023-03-24T12:43:44.944Z,52.10
2023-03-24T12:46:40.630Z,52.10
2023-03-24T12:49:32.990Z,52.10
2023-03-24T12:52:19.382Z,52.20
2023-03-24T12:55:07.568Z,52.20
2023-03-24T12:58:10.599Z,52.30
2023-03-24T13:00:58.083Z,52.40
2023-03-24T13:03:41.603Z,52.60
2023-03-24T13:06:23.102Z,52.60
2023-03-24T13:09:15.114Z,52.60
2023-03-24T13:11:56.841Z,53.10
2023-03-24T13:14:31.920Z,52.50
2023-03-24T13:17:15.167Z,52.70
2023-03-24T13:19:44.788Z,52.70
2023-03-24T13:22:21.154Z,52.80
2023-03-24T13:24:49.788Z,52.80
2023-03-24T13:27:36.846Z,52.80
2023-03-24T13:30:17.762Z,52.90
2023-03-24T13:33:01.746Z,53.10
2023-03-24T13:35:43.061Z,53.20
2023-03-24T13:38:43.880Z,53.20
2023-03-24T13:41:30.951Z,53.20
2023-03-24T13:44:03.821Z,53.20
2023-03-24T13:46:32.993Z,53.30
2023-03-24T13:49:02.171Z,53.50
2023-03-24T13:51:41.633Z,53.50
2023-03-24T13:54:26.856Z,53.60
2023-03-24T13:56:54.956Z,53.60
2023-03-24T13:59:26.183Z,53.70
2023-03-24T14:02:23.625Z,53.70
2023-03-24T14:05:10.807Z,53.80
2023-03-24T14:07:42.040Z,53.90
2023-03-24T14:10:37.610Z,53.90
2023-03-24T14:13:12.937Z,53.90
2023-03-24T14:15:54.867Z,54.00
2023-03-24T14:18:27.190Z,54.10
2023-03-24T14:20:58.446Z,54.10
2023-03-24T14:23:58.437Z,54.10
2023-03-24T14:26:26.957Z,54.10
2023-03-24T14:28:57.557Z,54.30
2023-03-24T14:31:33.510Z,54.20
2023-03-24T14:34:05.992Z,54.20
2023-03-24T14:36:40.943Z,54.20
2023-03-24T14:39:18.009Z,54.20
2023-03-24T14:41:52.119Z,54.30
2023-03-24T14:44:49.670Z,54.30
2023-03-24T14:47:23.821Z,54.30
2023-03-24T14:49:59.614Z,54.60
2023-03-24T14:52:41.338Z,54.50
2023-03-24T14:55:16.774Z,54.50
2023-03-24T14:57:48.642Z,54.50
2023-03-24T15:00:23.158Z,54.60
2023-03-24T15:03:01.045Z,54.60
2023-03-24T15:05:32.493Z,54.60
2023-03-24T15:08:07.835Z,54.90
2023-03-24T15:10:44.950Z,54.90
2023-03-24T15:13:37.572Z,55.00
2023-03-24T15:16:31.526Z,55.20
2023-03-24T15:19:12.256Z,55.30
2023-03-24T15:21:47.100Z,55.40
2023-03-24T15:24:38.832Z,55.40
2023-03-24T15:27:12.072Z,55.60
2023-03-24T15:29:42.203Z,55.70
2023-03-24T15:32:33.155Z,55.80
2023-03-24T15:35:06.019Z,56.00
2023-03-24T15:37:36.747Z,56.10
2023-03-24T15:40:15.692Z,56.10
2023-03-24T15:42:46.660Z,56.10
2023-03-24T15:45:44.625Z,56.10
2023-03-24T15:48:17.004Z,56.20
2023-03-24T15:51:06.911Z,56.20
2023-03-24T15:53:40.599Z,56.30
2023-03-24T15:56:27.091Z,56.40
2023-03-24T15:59:14.086Z,56.30
2023-03-24T16:01:45.169Z,56.20
2023-03-24T16:04:18.570Z,56.20
2023-03-24T16:06:53.645Z,56.30
2023-03-24T16:09:27.527Z,56.30
2023-03-24T16:11:56.297Z,56.30
2023-03-24T16:14:25.619Z,56.30
2023-03-24T16:17:00.010Z,56.30
2023-03-24T16:19:28.847Z,56.40
2023-03-24T16:21:57.139Z,56.40
2023-03-24T16:24:26.180Z,56.40
2023-03-24T16:26:55.087Z,56.40
2023-03-24T16:29:27.458Z,56.40
2023-03-24T16:31:57.555Z,56.40
2023-03-24T16:34:25.792Z,56.50
2023-03-24T16:36:55.140Z,56.40
2023-03-24T16:39:28.921Z,56.50
2023-03-24T16:41:57.457Z,56.50
2023-03-24T16:44:26.100Z,56.50
2023-03-24T16:46:56.207Z,56.60
2023-03-24T16:49:25.168Z,56.60
2023-03-24T16:51:54.068Z,56.60
2023-03-24T16:54:22.326Z,56.70
2023-03-24T16:56:51.374Z,56.80
2023-03-24T16:59:20.000Z,56.90
2023-03-24T17:01:48.341Z,57.10
2023-03-24T17:04:19.574Z,57.20
2023-03-24T17:06:55.576Z,57.30
2023-03-24T17:09:24.159Z,57.40
2023-03-24T17:11:54.597Z,57.60
2023-03-24T17:14:23.788Z,57.90
2023-03-24T17:16:53.456Z,58.10
2023-03-24T17:19:23.729Z,58.00
2023-03-24T17:22:11.889Z,58.10
2023-03-24T17:24:42.487Z,58.40
2023-03-24T17:27:19.027Z,58.70
2023-03-24T17:29:47.589Z,58.70
2023-03-24T17:32:16.179Z,58.90
2023-03-24T17:34:48.593Z,59.30
2023-03-24T17:37:17.600Z,59.20
2023-03-24T17:39:46.422Z,58.90
2023-03-24T17:42:14.711Z,59.80
2023-03-24T17:44:42.876Z,60.10
2023-03-24T17:47:11.106Z,60.10
2023-03-24T17:49:39.272Z,60.40
2023-03-24T17:52:07.507Z,60.10
2023-03-24T17:54:36.363Z,60.40
2023-03-24T17:57:04.481Z,60.30
2023-03-24T17:59:33.909Z,60.70
2023-03-24T18:02:01.960Z,61.00
2023-03-24T18:04:30.310Z,61.60
2023-03-24T18:07:00.457Z,61.40
2023-03-24T18:09:28.846Z,62.10
2023-03-24T18:11:58.888Z,61.80
2023-03-24T18:14:28.166Z,62.70
2023-03-24T18:16:56.280Z,62.10
2023-03-24T18:19:24.682Z,62.40
2023-03-24T18:21:53.556Z,62.10
2023-03-24T18:24:21.605Z,62.00
2023-03-24T18:26:50.434Z,62.90
2023-03-24T18:29:22.993Z,62.80
2023-03-24T18:31:52.449Z,63.30
2023-03-24T18:34:23.294Z,63.60
2023-03-24T18:36:51.696Z,63.80
2023-03-24T18:39:19.792Z,65.20
2023-03-24T18:41:48.340Z,64.50
2023-03-24T18:44:17.770Z,63.90
2023-03-24T18:46:46.769Z,64.90
2023-03-24T18:49:15.557Z,65.90
2023-03-24T18:51:45.405Z,66.40
2023-03-24T18:54:13.606Z,65.70
2023-03-24T18:56:41.993Z,66.50
2023-03-24T18:59:11.873Z,66.10
2023-03-24T19:01:41.122Z,66.20
2023-03-24T19:04:09.644Z,66.20
2023-03-24T19:06:42.755Z,66.40
2023-03-24T19:09:13.776Z,65.90
2023-03-24T19:11:43.617Z,65.60
2023-03-24T19:14:11.230Z,66.10
2023-03-24T19:16:39.483Z,66.30
2023-03-24T19:19:08.997Z,66.20
2023-03-24T19:21:38.139Z,66.90
2023-03-24T19:24:06.645Z,66.20
2023-03-24T19:26:34.632Z,66.20
2023-03-24T19:29:02.764Z,65.60
2023-03-24T19:31:30.940Z,65.30
2023-03-24T19:33:59.885Z,65.40
2023-03-24T19:36:28.320Z,64.90
2023-03-24T19:38:57.823Z,64.70
2023-03-24T19:41:27.474Z,64.70
2023-03-24T19:43:56.463Z,64.90
2023-03-24T19:46:24.769Z,65.30
2023-03-24T19:48:52.944Z,65.40
2023-03-24T19:51:21.807Z,65.30
2023-03-24T19:53:49.928Z,65.10
2023-03-24T19:56:20.718Z,65.10
2023-03-24T19:58:49.737Z,65.40
2023-03-24T20:01:18.274Z,65.30
2023-03-24T20:03:46.644Z,66.00
2023-03-24T20:06:15.864Z,65.70
2023-03-24T20:08:45.538Z,66.30
2023-03-24T20:11:13.671Z,66.00
2023-03-24T20:13:41.935Z,66.00
2023-03-24T20:16:10.940Z,65.70
2023-03-24T20:18:40.185Z,65.60
2023-03-24T20:21:09.470Z,66.20
2023-03-24T20:23:38.583Z,66.20
2023-03-24T20:26:06.967Z,65.50
2023-03-24T20:28:35.845Z,65.70
2023-03-24T20:31:04.637Z,65.90
2023-03-24T20:33:32.755Z,65.80
2023-03-24T20:36:01.277Z,65.90
2023-03-24T20:38:29.666Z,66.10
2023-03-24T20:41:08.136Z,66.10
2023-03-24T20:43:37.974Z,66.30
2023-03-24T20:46:08.589Z,67.30
2023-03-24T20:48:37.591Z,66.30
2023-03-24T20:51:06.046Z,67.00
2023-03-24T20:53:36.686Z,67.30
2023-03-24T20:56:07.834Z,67.20
2023-03-24T20:58:39.132Z,67.10
2023-03-24T21:01:09.595Z,67.30
2023-03-24T21:03:37.801Z,67.70
2023-03-24T21:06:07.113Z,67.80
2023-03-24T21:08:35.120Z,67.80
2023-03-24T21:11:03.153Z,67.80
2023-03-24T21:13:37.368Z,67.80
2023-03-24T21:16:11.283Z,68.20
2023-03-24T21:18:43.741Z,68.60
2023-03-24T21:21:12.960Z,66.20
2023-03-24T21:23:42.482Z,66.90
2023-03-24T21:26:15.458Z,67.60
2023-03-24T21:28:43.796Z,67.70
2023-03-24T21:31:26.755Z,67.40
2023-03-24T21:33:56.593Z,68.20
2023-03-24T21:36:31.656Z,68.60
2023-03-24T21:38:59.847Z,68.20
2023-03-24T21:41:29.066Z,67.40
2023-03-24T21:44:00.917Z,67.40
2023-03-24T21:46:32.297Z,67.70
2023-03-24T21:49:01.213Z,67.20
2023-03-24T21:51:35.038Z,67.60
2023-03-24T21:54:06.934Z,67.50
2023-03-24T21:56:38.253Z,66.60
2023-03-24T21:59:07.397Z,67.50
2023-03-24T22:01:36.499Z,67.80
2023-03-24T22:04:06.793Z,69.10
2023-03-24T22:06:39.085Z,68.50
2023-03-24T22:09:08.420Z,68.60
2023-03-24T22:11:38.299Z,69.20
2023-03-24T22:14:07.178Z,68.80
2023-03-24T22:16:35.551Z,70.00
2023-03-24T22:19:03.726Z,69.80
2023-03-24T22:21:32.625Z,70.20
2023-03-24T22:24:00.933Z,69.60
2023-03-24T22:26:29.149Z,69.50
2023-03-24T22:28:57.457Z,69.30
2023-03-24T22:31:25.669Z,70.90
2023-03-24T22:33:54.872Z,70.30
2023-03-24T22:36:22.922Z,70.60
2023-03-24T22:38:51.300Z,70.70
2023-03-24T22:41:19.326Z,70.20
2023-03-24T22:43:47.361Z,71.00
2023-03-24T22:46:15.833Z,72.80
2023-03-24T22:48:44.033Z,70.90
2023-03-24T22:51:17.252Z,70.90
2023-03-24T22:53:48.601Z,71.50
2023-03-24T22:56:16.829Z,71.60
2023-03-24T22:58:45.001Z,72.80
2023-03-24T23:01:13.241Z,73.20
2023-03-24T23:03:42.098Z,73.80
2023-03-24T23:06:12.202Z,73.40
2023-03-24T23:08:40.388Z,74.00
2023-03-24T23:11:08.530Z,73.60
2023-03-24T23:13:36.495Z,74.70
2023-03-24T23:16:06.042Z,74.20
2023-03-24T23:18:34.847Z,73.30
2023-03-24T23:21:09.492Z,76.00
2023-03-24T23:23:39.345Z,76.90
2023-03-24T23:26:26.123Z,74.50
2023-03-24T23:28:57.184Z,74.10
2023-03-24T23:31:27.743Z,74.70
2023-03-24T23:33:57.863Z,74.10
2023-03-24T23:36:28.733Z,73.70
2023-03-24T23:38:57.649Z,74.00
2023-03-24T23:41:25.817Z,72.80
2023-03-24T23:43:55.335Z,74.70
2023-03-24T23:46:25.368Z,75.90
2023-03-24T23:48:53.348Z,76.20
2023-03-24T23:51:22.349Z,76.00
2023-03-24T23:53:51.857Z,75.70
2023-03-24T23:56:22.536Z,76.10
2023-03-24T23:58:50.488Z,75.70
